Time;durP1;ratioP1;P1;durP2;ratioP2;P2;SDS_P1;SDS_P2;PMS_P1;PMS_P2;Temp;Humidity;BMP_temperature;BMP_pressure;BME280_temperature;BME280_humidity;BME280_pressure;Samples;Min_cycle;Max_cycle;Signal;HPM_P1;HPM_P2
2023/04/08 00:01:16;;;;;;;15.50;12.07;;;6.40;73.80;;;6.53;64.17;98093.09;4985497;28;20462;-69
2023/04/08 00:03:44;;;;;;;14.40;12.83;;;6.40;74.10;;;6.23;64.97;98104.66;4986181;28;20467;-70
2023/04/08 00:06:12;;;;;;;13.50;12.20;;;6.20;73.60;;;6.40;63.81;98088.38;4981915;28;20601;-67
2023/04/08 00:08:39;;;;;;;19.90;14.17;;;6.20;73.80;;;6.36;64.52;98092.44;4991378;28;20456;-69
2023/04/08 00:11:07;;;;;;;15.70;13.30;;;6.20;74.10;;;6.39;60.98;98092.06;4987337;28;20454;-69
2023/04/08 00:13:34;;;;;;;19.80;12.70;;;6.10;72.20;;;6.42;61.43;98091.69;4985955;28;20505;-69
2023/04/08 00:16:01;;;;;;;15.07;12.50;;;6.10;72.20;;;6.50;61.21;98093.44;4981819;28;20525;-70
2023/04/08 00:18:28;;;;;;;16.33;13.00;;;6.20;71.60;;;6.42;60.65;98090.88;4969788;28;21428;-69
2023/04/08 00:20:57;;;;;;;14.33;12.60;;;6.20;71.30;;;6.41;58.91;98090.03;4988846;28;20465;-71
2023/04/08 00:23:24;;;;;;;14.37;12.67;;;6.20;70.10;;;6.39;58.46;98094.75;4989637;28;20464;-67
2023/04/08 00:25:51;;;;;;;14.03;12.37;;;6.20;68.60;;;6.40;58.59;98098.28;4970451;28;20460;-68
2023/04/08 00:28:19;;;;;;;14.10;12.60;;;6.20;68.20;;;6.24;57.25;98097.47;4963872;28;20699;-68
2023/04/08 00:30:46;;;;;;;15.10;12.50;;;6.10;67.20;;;6.13;57.66;98103.28;4978259;28;20450;-69
2023/04/08 00:33:13;;;;;;;13.20;11.80;;;6.10;66.90;;;6.23;56.25;98095.78;4988224;28;20454;-71
2023/04/08 00:35:40;;;;;;;12.37;11.17;;;6.10;65.60;;;6.09;56.63;98105.50;4982540;28;21075;-68
2023/04/08 00:38:09;;;;;;;14.63;12.63;;;6.00;65.50;;;5.96;57.42;98104.25;4970106;28;20456;-71
2023/04/08 00:40:36;;;;;;;12.97;11.67;;;5.90;65.80;;;6.14;57.13;98102.25;4964745;28;20540;-69
2023/04/08 00:43:03;;;;;;;15.43;12.37;;;5.90;66.20;;;6.12;58.01;98101.63;4984967;28;20996;-68
2023/04/08 00:45:30;;;;;;;14.80;13.17;;;5.80;66.60;;;5.92;58.78;98102.97;4988215;28;20550;-66
2023/04/08 00:47:57;;;;;;;14.13;12.77;;;5.70;67.20;;;5.83;58.68;98104.03;4969121;28;20479;-68
2023/04/08 00:50:24;;;;;;;14.63;13.20;;;5.60;67.80;;;5.55;59.58;98111.84;4967915;28;20481;-68
2023/04/08 00:52:51;;;;;;;14.83;13.33;;;5.50;68.40;;;5.63;60.04;98104.56;4983456;28;20471;-72
2023/04/08 00:55:20;;;;;;;14.93;12.93;;;5.40;68.80;;;5.41;60.10;98100.91;4964708;28;20467;-67
2023/04/08 00:57:47;;;;;;;18.97;13.00;;;5.30;68.90;;;5.51;60.70;98108.69;4989396;28;21043;-66
2023/04/08 01:00:16;;;;;;;16.23;14.10;;;5.30;69.20;;;5.52;60.01;98099.63;4983429;28;20517;-70
2023/04/08 01:02:48;;;;;;;14.20;12.73;;;5.20;69.50;;;5.52;60.26;98110.34;4984187;28;20468;-68
2023/04/08 01:05:21;;;;;;;15.87;14.17;;;5.20;69.80;;;5.41;60.90;98105.44;4971614;28;20451;-69
2023/04/08 01:07:50;;;;;;;17.40;13.33;;;5.10;70.00;;;5.39;60.51;98108.28;4990322;28;20477;-67
2023/04/08 01:10:22;;;;;;;15.80;12.97;;;5.10;70.10;;;5.16;61.81;98108.31;4990157;28;20482;-67
2023/04/08 01:12:54;;;;;;;15.20;13.37;;;5.10;70.20;;;5.28;61.11;98114.91;4979277;28;20481;-69
2023/04/08 01:15:23;;;;;;;15.30;13.70;;;5.10;70.10;;;5.31;61.54;98117.22;4985285;28;21305;-67
2023/04/08 01:17:55;;;;;;;15.60;14.00;;;5.20;70.40;;;5.42;61.65;98118.66;4977809;28;20496;-70
2023/04/08 01:20:24;;;;;;;15.37;13.73;;;5.20;70.40;;;5.46;61.25;98114.63;4991389;28;20454;-66
2023/04/08 01:23:05;;;;;;;19.07;13.60;;;5.30;70.30;;;5.47;61.40;98118.13;4964834;28;20518;-66
2023/04/08 01:25:36;;;;;;;15.57;13.70;;;5.30;70.30;;;5.58;61.79;98117.69;4981951;28;20448;-65
2023/04/08 01:28:08;;;;;;;15.60;14.00;;;5.40;70.50;;;5.65;61.06;98118.63;4989050;28;20480;-67
2023/04/08 01:30:38;;;;;;;16.27;13.97;;;5.40;70.60;;;5.52;61.71;98115.72;4963202;28;20832;-66
2023/04/08 01:33:06;;;;;;;18.50;14.47;;;5.50;70.40;;;5.59;61.72;98116.69;4979294;28;20468;-67
2023/04/08 01:35:34;;;;;;;15.03;13.40;;;5.50;70.60;;;5.77;61.66;98119.03;4977029;28;20500;-70
2023/04/08 01:38:05;;;;;;;15.10;13.50;;;5.60;70.60;;;5.63;61.91;98120.66;4980544;28;20533;-66
2023/04/08 01:40:34;;;;;;;17.07;15.27;;;5.60;70.50;;;5.65;62.38;98112.44;4963103;28;20989;-68
2023/04/08 01:43:03;;;;;;;18.30;14.90;;;5.50;70.80;;;5.93;61.17;98119.91;4983265;28;20577;-68
2023/04/08 01:45:32;;;;;;;17.70;14.60;;;5.60;71.00;;;5.57;61.99;98072.28;4988389;28;20558;-67
2023/04/08 01:48:00;;;;;;;15.93;13.83;;;5.60;71.10;;;5.68;62.58;98112.88;4969178;28;20571;-70
2023/04/08 01:50:28;;;;;;;18.33;15.33;;;5.60;71.10;;;5.51;63.08;98117.59;4962101;28;20503;-69
2023/04/08 01:52:57;;;;;;;15.87;14.27;;;5.50;71.40;;;5.57;63.00;98110.66;4985835;28;20511;-69
2023/04/08 01:55:25;;;;;;;16.37;14.70;;;5.50;71.80;;;5.77;62.50;98107.47;4976580;28;20462;-67
2023/04/08 01:57:53;;;;;;;15.40;13.70;;;5.60;71.90;;;5.77;63.06;98111.00;4968325;28;20980;-68
2023/04/08 02:00:24;;;;;;;18.37;15.07;;;5.60;71.80;;;5.88;62.56;98112.38;4988904;28;20451;-67
2023/04/08 02:02:54;;;;;;;16.40;14.80;;;5.60;72.20;;;5.70;63.33;98109.22;4966967;28;20920;-66
2023/04/08 02:05:22;;;;;;;16.03;13.97;;;5.60;72.50;;;5.71;64.07;98113.56;4987754;28;21326;-68
2023/04/08 02:07:50;;;;;;;18.93;15.57;;;5.60;72.80;;;5.80;64.26;98115.13;4978429;28;20605;-69
2023/04/08 02:10:17;;;;;;;18.53;13.70;;;5.60;73.10;;;5.79;64.10;98124.19;4980454;28;20467;-70
2023/04/08 02:12:45;;;;;;;17.50;14.00;;;5.60;73.50;;;5.71;64.50;98117.06;4967754;28;20471;-70
2023/04/08 02:15:13;;;;;;;17.27;14.40;;;5.60;73.70;;;5.53;65.54;98123.59;4983637;28;20498;-72
2023/04/08 02:17:49;;;;;;;16.93;14.80;;;5.60;74.00;;;5.46;66.38;98116.44;4979286;28;20522;-69
2023/04/08 02:20:21;;;;;;;15.40;13.43;;;5.50;74.50;;;5.52;65.83;98123.75;4984726;28;20466;-69
2023/04/08 02:22:55;;;;;;;18.30;14.53;;;5.40;74.70;;;5.36;66.61;98125.56;4988797;28;20499;-71
2023/04/08 02:25:25;;;;;;;17.27;14.40;;;5.40;75.20;;;5.24;67.35;98127.00;4963942;28;20785;-68
2023/04/08 02:27:54;;;;;;;16.63;13.37;;;5.30;75.60;;;4.89;68.19;98103.28;4981355;28;21236;-70
2023/04/08 02:30:22;;;;;;;19.23;13.87;;;5.20;76.10;;;5.25;67.58;98126.00;4981040;28;20526;-68
2023/04/08 02:32:51;;;;;;;18.27;15.40;;;5.20;76.60;;;5.23;68.41;98115.44;4983446;28;20497;-68
2023/04/08 02:35:21;;;;;;;16.33;14.50;;;5.20;76.80;;;5.30;68.47;98120.94;4967812;28;20454;-69
2023/04/08 02:37:48;;;;;;;16.83;15.10;;;5.20;77.20;;;5.51;68.09;98130.13;4979024;28;20485;-71
2023/04/08 02:40:29;;;;;;;16.07;13.97;;;5.20;77.40;;;5.31;67.92;98129.81;4981481;28;20498;-73
2023/04/08 02:42:57;;;;;;;16.90;15.10;;;5.20;77.20;;;5.15;69.23;98128.88;4964321;28;20454;-72
2023/04/08 02:45:28;;;;;;;16.30;14.60;;;5.10;77.80;;;4.98;69.36;98122.81;4988070;28;20450;-68
2023/04/08 02:47:55;;;;;;;16.13;14.20;;;5.10;78.30;;;5.19;69.58;98134.72;4965489;28;20475;-66
2023/04/08 02:50:24;;;;;;;16.80;14.27;;;5.00;78.50;;;5.19;68.00;98135.56;4966001;28;20559;-70
2023/04/08 02:52:51;;;;;;;17.40;14.60;;;5.10;77.70;;;5.15;69.22;98138.78;4989282;28;20455;-68
2023/04/08 02:55:18;;;;;;;18.67;15.40;;;5.00;78.20;;;5.03;69.60;98125.78;4964913;28;20500;-69
2023/04/08 02:57:48;;;;;;;15.83;14.23;;;5.00;78.60;;;5.02;69.03;98132.16;4981019;28;20572;-67
2023/04/08 03:00:16;;;;;;;18.40;15.33;;;5.00;78.40;;;5.05;68.79;98129.13;4984305;28;20449;-71
2023/04/08 03:02:44;;;;;;;16.83;15.00;;;5.00;78.70;;;5.19;68.57;98140.94;4983217;28;20508;-67
2023/04/08 03:05:11;;;;;;;16.40;14.70;;;5.00;78.80;;;5.05;69.45;98139.00;4986286;28;20491;-69
2023/04/08 03:07:39;;;;;;;19.33;15.13;;;5.00;78.90;;;5.24;68.46;98143.09;4979844;28;20485;-69
2023/04/08 03:10:08;;;;;;;16.17;14.47;;;5.00;79.10;;;5.35;69.09;98134.59;4987724;28;20536;-71
2023/04/08 03:12:35;;;;;;;19.30;15.07;;;5.10;78.90;;;5.06;68.98;98146.84;4977411;28;20539;-67
2023/04/08 03:15:03;;;;;;;17.37;14.23;;;5.00;78.80;;;5.08;69.54;98135.97;4980336;28;20469;-74
2023/04/08 03:17:32;;;;;;;20.07;16.10;;;5.00;79.10;;;5.24;68.32;98145.75;4970618;28;20471;-70
2023/04/08 03:19:59;;;;;;;18.57;15.67;;;5.00;78.70;;;4.95;68.86;98133.88;4980879;28;20855;-66
2023/04/08 03:22:27;;;;;;;17.60;15.50;;;4.90;78.90;;;5.02;69.11;98145.53;4983835;28;20513;-73
2023/04/08 03:24:55;;;;;;;19.73;16.27;;;4.90;79.40;;;4.95;69.48;98144.59;4986973;28;20506;-67
2023/04/08 03:27:22;;;;;;;19.40;15.40;;;4.90;78.90;;;4.94;69.05;98148.28;4956793;28;20463;-67
2023/04/08 03:29:50;;;;;;;17.17;14.60;;;4.90;79.00;;;4.85;69.39;98147.47;4991854;28;20518;-68
2023/04/08 03:32:17;;;;;;;17.37;15.03;;;4.80;78.70;;;4.77;69.32;98145.66;4980374;28;20552;-72
2023/04/08 03:34:44;;;;;;;17.90;16.00;;;4.70;78.50;;;4.81;68.74;98148.84;4980428;28;20454;-69
2023/04/08 03:37:12;;;;;;;18.00;15.67;;;4.70;78.90;;;4.63;69.58;98151.78;4964251;28;20463;-71
2023/04/08 03:39:39;;;;;;;17.73;15.93;;;4.70;78.50;;;4.74;69.25;98154.06;4981290;28;20544;-69
2023/04/08 03:42:08;;;;;;;17.87;14.40;;;4.60;78.70;;;4.82;69.12;98161.22;4983074;28;20470;-70
2023/04/08 03:44:35;;;;;;;17.20;15.27;;;4.60;78.80;;;4.91;68.51;98154.81;4977378;28;20554;-67
2023/04/08 03:47:02;;;;;;;16.60;14.30;;;4.70;78.60;;;4.58;68.44;98146.94;4969328;28;20467;-69
2023/04/08 03:49:29;;;;;;;18.90;14.80;;;4.60;78.30;;;4.46;69.15;98148.34;4975298;28;20571;-66
2023/04/08 03:51:56;;;;;;;19.10;15.77;;;4.50;77.90;;;4.58;68.01;98149.63;4977764;28;20481;-68
2023/04/08 03:54:24;;;;;;;16.30;14.60;;;4.50;77.90;;;4.71;67.59;98145.56;4980276;28;20481;-69
2023/04/08 03:56:51;;;;;;;18.63;16.10;;;4.50;77.80;;;4.32;68.76;98156.06;4962490;28;20529;-68
2023/04/08 03:59:19;;;;;;;20.10;15.87;;;4.50;77.40;;;4.24;68.70;98156.94;4988295;28;20461;-70
2023/04/08 04:01:47;;;;;;;18.40;15.03;;;4.40;77.50;;;4.23;68.81;98154.41;4968862;28;20462;-69
2023/04/08 04:04:15;;;;;;;16.47;14.77;;;4.30;77.40;;;4.25;68.95;98158.59;4980420;28;20668;-66
2023/04/08 04:06:42;;;;;;;17.77;15.83;;;4.30;77.30;;;4.20;68.50;98154.75;4965143;28;20879;-69
2023/04/08 04:09:10;;;;;;;16.90;15.10;;;4.30;77.20;;;4.39;67.51;98166.91;4978382;28;20589;-68
2023/04/08 04:11:37;;;;;;;19.13;15.40;;;4.40;77.10;;;4.39;68.15;98161.56;4965919;28;20460;-69
2023/04/08 04:14:05;;;;;;;18.80;15.07;;;4.40;76.70;;;4.37;67.86;98169.75;4971378;28;20465;-68
2023/04/08 04:16:33;;;;;;;17.60;15.00;;;4.50;76.40;;;4.61;67.19;98156.44;4980800;28;20556;-72
2023/04/08 04:19:00;;;;;;;17.83;14.80;;;4.50;76.20;;;4.64;66.92;98161.47;4986738;28;20450;-71
2023/04/08 04:21:27;;;;;;;16.27;14.57;;;4.60;75.90;;;4.73;65.92;98163.09;4981874;28;21086;-67
2023/04/08 04:23:55;;;;;;;17.40;15.50;;;4.70;75.90;;;4.88;65.70;98157.00;4983182;28;20490;-68
2023/04/08 04:26:22;;;;;;;16.30;14.60;;;4.80;75.80;;;4.72;66.23;98164.09;4981313;28;20492;-67
2023/04/08 04:28:49;;;;;;;17.40;15.60;;;4.90;75.50;;;5.00;65.62;98163.63;4961652;28;20839;-68
2023/04/08 04:31:20;;;;;;;19.97;16.43;;;4.90;75.90;;;5.13;65.74;98172.94;4971197;28;20916;-71
2023/04/08 04:33:49;;;;;;;16.90;14.93;;;5.00;75.70;;;5.18;65.17;98170.56;4958988;28;20453;-73
2023/04/08 04:36:16;;;;;;;17.30;15.13;;;5.10;75.40;;;4.97;65.35;98166.69;4973076;28;20468;-73
2023/04/08 04:38:44;;;;;;;17.73;15.13;;;5.00;75.20;;;4.92;65.60;98177.06;4976858;28;20473;-69
2023/04/08 04:41:11;;;;;;;17.73;15.87;;;5.00;75.20;;;4.77;66.40;98179.66;4968962;28;20491;-69
2023/04/08 04:43:38;;;;;;;20.37;17.03;;;4.90;75.30;;;4.95;66.36;98179.41;4982020;28;20516;-70
2023/04/08 04:46:07;;;;;;;19.67;17.50;;;4.90;75.50;;;4.99;66.50;98180.72;4976419;28;20882;-69
2023/04/08 04:48:35;;;;;;;18.63;15.90;;;4.90;75.60;;;4.95;66.19;98187.44;4960536;28;21135;-67
2023/04/08 04:51:06;;;;;;;17.90;15.80;;;4.90;75.30;;;4.99;65.35;98183.41;4983435;28;20458;-71
2023/04/08 04:53:33;;;;;;;17.53;15.73;;;5.00;75.00;;;4.95;65.90;98185.59;4981136;28;21118;-74
2023/04/08 04:56:02;;;;;;;18.67;15.47;;;5.00;74.90;;;4.90;65.82;98184.44;4979789;28;20462;-68
2023/04/08 04:58:29;;;;;;;17.80;16.00;;;5.00;74.90;;;4.85;65.88;98181.47;4979233;28;20453;-68
2023/04/08 05:00:56;;;;;;;17.07;14.70;;;4.90;74.80;;;5.05;65.26;98188.03;4983190;28;20763;-69
2023/04/08 05:03:24;;;;;;;18.97;15.30;;;5.00;75.10;;;4.91;65.69;98186.09;4959161;28;20560;-70
2023/04/08 05:05:52;;;;;;;21.27;15.30;;;5.00;74.70;;;4.89;65.27;98198.84;4971189;28;20946;-70
2023/04/08 05:08:21;;;;;;;16.67;14.80;;;5.00;74.60;;;5.02;65.17;98191.06;4966023;28;20781;-71
2023/04/08 05:10:50;;;;;;;17.50;15.67;;;5.00;74.80;;;4.97;65.14;98201.50;4982003;28;21135;-69
2023/04/08 05:13:17;;;;;;;19.30;16.27;;;5.10;74.40;;;4.90;65.69;98211.22;4980546;28;20462;-67
2023/04/08 05:15:45;;;;;;;22.23;16.10;;;5.00;74.60;;;4.76;64.79;98157.38;4961712;28;21048;-67
2023/04/08 05:18:12;;;;;;;22.10;15.17;;;5.00;74.40;;;4.93;65.51;98201.00;4972743;28;20464;-69
2023/04/08 05:20:39;;;;;;;17.10;15.17;;;5.00;74.30;;;5.17;63.90;98209.94;4975547;28;20594;-67
2023/04/08 05:23:07;;;;;;;15.90;14.07;;;5.10;74.70;;;5.10;64.81;98204.44;4979444;28;20532;-73
2023/04/08 05:25:36;;;;;;;18.00;15.63;;;5.10;74.00;;;4.90;64.35;98212.06;4976707;28;20547;-68
2023/04/08 05:28:03;;;;;;;16.60;14.90;;;5.10;73.70;;;5.10;63.48;98212.47;4983171;28;20886;-68
2023/04/08 05:30:30;;;;;;;15.63;14.03;;;5.10;73.70;;;4.94;64.04;98212.56;4977356;28;20475;-68
2023/04/08 05:32:57;;;;;;;19.73;15.17;;;5.10;73.60;;;5.25;64.44;98214.41;4963941;28;20467;-68
2023/04/08 05:35:25;;;;;;;15.73;14.03;;;5.20;73.80;;;5.28;63.85;98214.03;4982076;28;20492;-66
2023/04/08 05:37:52;;;;;;;17.10;13.90;;;5.30;73.60;;;5.10;63.94;98217.84;4982892;28;20456;-70
2023/04/08 05:40:20;;;;;;;15.30;13.80;;;5.20;73.70;;;4.92;65.15;98179.72;4977255;28;20947;-71
2023/04/08 05:42:48;;;;;;;14.27;12.83;;;5.20;74.30;;;5.42;64.21;98219.66;4988053;28;20591;-67
2023/04/08 05:45:16;;;;;;;13.80;12.47;;;5.30;74.00;;;5.12;65.38;98224.84;4985184;28;20952;-68
2023/04/08 05:47:43;;;;;;;12.67;11.40;;;5.20;74.30;;;5.21;66.03;98229.13;4984057;28;20456;-68
2023/04/08 05:50:11;;;;;;;12.90;11.40;;;5.20;75.00;;;5.24;66.86;98229.63;4962044;28;20542;-71
2023/04/08 05:52:43;;;;;;;14.40;11.80;;;5.20;75.60;;;5.48;66.71;98226.97;4989158;28;20446;-72
2023/04/08 05:55:10;;;;;;;12.20;11.00;;;5.30;76.20;;;5.41;66.61;98234.06;4986858;28;20451;-75
2023/04/08 05:57:37;;;;;;;12.57;10.40;;;5.40;76.20;;;5.27;68.22;98233.81;4989085;28;20512;-67
2023/04/08 06:00:09;;;;;;;12.87;9.93;;;5.40;77.10;;;5.09;69.39;98239.41;4984013;28;20551;-72
2023/04/08 06:02:36;;;;;;;11.33;10.13;;;5.20;78.30;;;4.94;70.17;98239.34;4980756;28;20461;-67
2023/04/08 06:05:04;;;;;;;9.70;8.73;;;5.10;79.50;;;4.89;71.30;98241.69;4971624;28;20459;-69
2023/04/08 06:07:33;;;;;;;10.90;9.63;;;5.00;80.50;;;4.93;71.95;98240.34;4967347;28;20478;-67
2023/04/08 06:10:00;;;;;;;12.23;10.80;;;5.00;81.90;;;5.02;73.37;98243.81;4982137;28;20483;-73
2023/04/08 06:12:27;;;;;;;10.90;9.80;;;5.00;83.30;;;5.18;73.32;98241.06;4982885;28;20563;-67
2023/04/08 06:14:55;;;;;;;12.67;10.40;;;5.10;84.40;;;5.29;73.28;98249.69;4981714;28;20476;-73
2023/04/08 06:17:24;;;;;;;11.80;9.87;;;5.20;85.60;;;4.68;74.41;98208.31;4986670;28;20514;-70
2023/04/08 06:19:51;;;;;;;11.87;9.33;;;5.00;85.80;;;5.02;74.74;98251.84;4984199;28;20454;-77
2023/04/08 06:22:18;;;;;;;12.27;9.70;;;5.00;87.80;;;5.07;76.00;98249.47;4967377;28;20475;-68
2023/04/08 06:24:47;;;;;;;10.70;9.60;;;5.00;88.90;;;5.12;75.35;98251.63;4969980;28;20485;-69
2023/04/08 06:27:15;;;;;;;11.33;10.23;;;5.10;89.90;;;5.06;77.08;98247.81;4982894;28;20459;-69
2023/04/08 06:29:42;;;;;;;10.13;9.00;;;5.00;90.60;;;4.89;76.79;98263.94;4981409;28;20514;-67
2023/04/08 06:32:10;;;;;;;13.93;10.27;;;5.00;91.10;;;4.83;78.43;98253.91;4985101;28;21037;-68
2023/04/08 06:34:38;;;;;;;11.30;10.10;;;4.90;91.50;;;4.62;79.24;98258.00;4966528;28;21254;-69
2023/04/08 06:37:06;;;;;;;12.10;9.30;;;4.80;93.00;;;4.67;79.71;98260.16;4984088;28;20466;-67
2023/04/08 06:39:34;;;;;;;14.20;10.50;;;4.70;94.00;;;4.53;80.34;98262.53;4975683;28;20940;-66
2023/04/08 06:42:01;;;;;;;11.77;10.60;;;4.70;94.60;;;4.39;81.17;98263.22;4978105;28;20448;-68
2023/04/08 06:44:28;;;;;;;11.97;10.70;;;4.60;95.10;;;4.49;81.75;98277.28;4984177;28;20469;-66
2023/04/08 06:46:55;;;;;;;15.90;12.07;;;4.50;96.30;;;4.48;81.72;98283.63;4973314;28;20548;-69
2023/04/08 06:49:23;;;;;;;15.17;12.23;;;4.50;96.80;;;4.51;82.05;98277.94;4987080;28;21133;-67
2023/04/08 06:51:51;;;;;;;15.83;13.10;;;4.50;97.70;;;4.76;82.14;98283.22;4962781;28;20469;-67
2023/04/08 06:54:19;;;;;;;15.67;12.47;;;4.60;99.60;;;4.62;81.80;98273.19;4984257;28;20528;-68
2023/04/08 06:56:46;;;;;;;15.93;13.03;;;4.70;97.30;;;4.53;82.24;98281.28;4983628;28;20460;-67
2023/04/08 06:59:13;;;;;;;16.10;12.93;;;4.70;96.10;;;4.69;81.73;98276.88;4967549;28;20462;-70
2023/04/08 07:01:41;;;;;;;14.27;12.77;;;4.70;97.80;;;4.57;81.52;98275.56;4983347;28;20485;-67
2023/04/08 07:04:08;;;;;;;15.10;13.10;;;4.70;97.40;;;4.75;81.52;98283.41;4981744;28;20929;-67
2023/04/08 07:06:35;;;;;;;14.50;12.83;;;4.80;97.40;;;4.84;82.66;98286.88;4960856;28;20874;-72
2023/04/08 07:09:04;;;;;;;12.97;11.37;;;4.80;99.00;;;4.82;82.00;98284.38;4979057;28;20487;-66
2023/04/08 07:11:31;;;;;;;14.13;10.67;;;4.90;98.60;;;4.90;80.65;98299.56;4981584;28;22102;-75
2023/04/08 07:13:58;;;;;;;12.37;11.10;;;4.90;96.30;;;4.82;82.26;98303.97;4964069;28;20495;-66
2023/04/08 07:16:25;;;;;;;15.30;13.60;;;4.80;96.70;;;4.97;82.01;98303.25;4983463;28;20528;-67
2023/04/08 07:18:53;;;;;;;14.00;12.53;;;4.80;97.50;;;4.92;82.08;98294.88;4978298;28;20458;-69
2023/04/08 07:21:20;;;;;;;14.40;12.73;;;4.90;97.70;;;5.10;81.09;98306.22;4958050;28;20510;-68
2023/04/08 07:23:47;;;;;;;13.97;12.47;;;5.00;98.40;;;5.01;81.94;98304.56;4976258;28;20459;-72
2023/04/08 07:26:16;;;;;;;13.40;12.00;;;5.00;97.50;;;5.13;81.48;98312.22;4972902;28;20478;-69
2023/04/08 07:28:43;;;;;;;14.77;13.27;;;5.00;98.00;;;5.01;80.94;98312.59;4978909;28;20479;-72
2023/04/08 07:31:13;;;;;;;14.77;11.60;;;5.00;96.80;;;4.96;81.81;98317.66;4981609;28;20476;-73
2023/04/08 07:33:40;;;;;;;12.83;11.53;;;4.90;96.60;;;4.99;82.81;98317.28;4980558;28;20452;-67
2023/04/08 07:36:09;;;;;;;14.07;11.50;;;4.90;98.70;;;4.94;81.23;98322.34;4971088;28;20457;-72
2023/04/08 07:38:36;;;;;;;15.03;10.80;;;4.90;97.60;;;4.80;81.94;98319.38;4968484;28;20715;-71
2023/04/08 07:41:03;;;;;;;15.70;11.80;;;4.80;96.90;;;4.67;83.18;98322.53;4981706;28;20448;-72
2023/04/08 07:43:35;;;;;;;13.17;10.70;;;4.80;98.00;;;4.70;82.65;98324.06;4968753;28;20503;-70
2023/04/08 07:46:03;;;;;;;14.10;10.83;;;4.80;98.50;;;4.78;83.13;98310.66;4976188;28;20512;-71
2023/04/08 07:48:31;;;;;;;13.97;10.93;;;4.80;99.50;;;4.99;81.77;98328.00;4974117;28;20473;-71
2023/04/08 07:50:58;;;;;;;12.37;11.07;;;4.90;99.50;;;4.75;82.02;98329.72;4975428;28;20467;-71
2023/04/08 07:53:26;;;;;;;11.97;10.77;;;4.80;97.30;;;4.74;82.64;98335.28;4979824;28;20472;-71
2023/04/08 07:55:53;;;;;;;12.17;10.57;;;4.70;98.20;;;5.00;81.46;98340.38;4956343;28;20445;-74
2023/04/08 07:58:21;;;;;;;12.70;11.40;;;4.80;99.90;;;5.05;82.67;98342.56;4976015;28;20537;-71
2023/04/08 08:00:49;;;;;;;13.50;11.43;;;4.90;99.90;;;5.21;81.77;98336.28;4961497;28;21229;-71
2023/04/08 08:03:18;;;;;;;14.00;11.57;;;4.90;99.90;;;4.97;82.07;98327.34;4972450;28;20514;-72
2023/04/08 08:05:45;;;;;;;14.03;12.07;;;4.90;98.40;;;5.05;82.25;98329.97;4977921;28;20532;-71
2023/04/08 08:08:12;;;;;;;13.63;12.13;;;5.00;98.20;;;4.99;82.33;98345.91;4977972;28;20462;-74
2023/04/08 08:10:40;;;;;;;13.40;11.50;;;5.00;97.30;;;5.15;81.64;98347.72;4975858;28;21385;-71
2023/04/08 08:13:08;;;;;;;13.37;11.40;;;5.00;98.00;;;5.18;81.57;98337.50;4974116;28;20463;-72
2023/04/08 08:15:35;;;;;;;13.77;12.20;;;5.10;97.00;;;5.25;82.33;98351.03;4959161;28;20454;-71
2023/04/08 08:18:03;;;;;;;11.43;10.30;;;5.20;97.80;;;5.28;81.20;98353.38;4981720;28;20516;-71
2023/04/08 08:20:31;;;;;;;14.00;11.43;;;5.20;96.20;;;5.41;80.34;98350.13;4974905;28;20464;-76
2023/04/08 08:22:58;;;;;;;15.23;11.07;;;5.30;96.50;;;5.31;80.06;98352.19;4973771;28;20507;-71
2023/04/08 08:25:25;;;;;;;12.57;10.47;;;5.30;93.60;;;5.47;79.87;98353.94;4979963;28;21001;-71
2023/04/08 08:27:54;;;;;;;12.63;11.30;;;5.30;94.30;;;5.55;79.94;98359.28;4978690;28;21090;-70
2023/04/08 08:30:21;;;;;;;14.00;11.60;;;5.40;94.80;;;5.68;79.20;98350.66;4986284;28;20517;-72
2023/04/08 08:32:50;;;;;;;16.00;13.13;;;5.50;94.60;;;5.71;78.77;98368.25;4985586;28;21243;-71
2023/04/08 08:35:19;;;;;;;13.43;11.63;;;5.50;93.40;;;5.60;79.71;98372.16;4967664;28;20459;-73
2023/04/08 08:37:46;;;;;;;13.90;11.50;;;5.50;93.80;;;5.65;79.72;98369.78;4987200;28;20464;-71
2023/04/08 08:40:15;;;;;;;12.70;11.40;;;5.50;94.10;;;5.72;78.81;98372.63;4985482;28;20467;-73
2023/04/08 08:42:50;;;;;;;13.07;11.77;;;5.60;93.00;;;5.77;78.40;98364.88;4984823;28;20467;-71
2023/04/08 08:45:19;;;;;;;14.50;12.97;;;5.60;93.30;;;5.73;77.10;98368.91;4983218;28;20455;-74
2023/04/08 08:47:46;;;;;;;16.27;12.50;;;5.60;92.00;;;5.92;77.56;98359.59;4983442;28;20466;-72
2023/04/08 08:50:14;;;;;;;13.97;12.13;;;5.70;92.40;;;5.81;77.24;98369.72;4978757;28;20982;-71
2023/04/08 08:52:50;;;;;;;14.33;11.97;;;5.70;91.80;;;5.81;76.80;98371.53;4981304;28;20550;-73
2023/04/08 08:55:20;;;;;;;16.90;14.90;;;5.70;91.20;;;6.14;76.03;98366.03;4984380;28;21028;-71
2023/04/08 08:57:49;;;;;;;14.30;12.57;;;5.90;90.80;;;6.19;75.85;98374.38;4981421;28;20455;-71
2023/04/08 09:00:17;;;;;;;13.73;12.23;;;6.00;90.70;;;6.07;76.83;98378.47;4984567;28;20461;-74
2023/04/08 09:02:44;;;;;;;13.83;12.30;;;6.00;91.50;;;6.15;75.60;98373.06;4985378;28;20462;-74
2023/04/08 09:05:11;;;;;;;13.30;12.00;;;6.00;90.60;;;6.29;75.67;98381.31;4968090;28;21101;-71
2023/04/08 09:07:40;;;;;;;14.27;12.17;;;6.10;90.90;;;6.50;75.44;98378.84;4977249;28;20468;-73
2023/04/08 09:10:10;;;;;;;13.40;10.90;;;6.20;90.50;;;6.51;74.33;98391.25;4980815;28;20476;-72
2023/04/08 09:12:55;;;;;;;14.37;11.50;;;6.40;88.90;;;6.66;74.44;98377.84;4982318;28;20470;-70
2023/04/08 09:15:22;;;;;;;13.87;11.50;;;6.50;89.30;;;6.86;73.47;98377.34;4986808;28;20550;-71
2023/04/08 09:17:49;;;;;;;12.57;10.70;;;6.60;88.30;;;6.73;72.85;98379.81;4967898;28;20546;-70
2023/04/08 09:20:16;;;;;;;16.00;11.37;;;6.60;85.70;;;6.87;73.17;98392.44;4979689;28;20549;-72
2023/04/08 09:22:56;;;;;;;12.07;10.67;;;6.70;86.80;;;6.65;73.61;98386.09;4979248;28;20489;-71
2023/04/08 09:25:26;;;;;;;11.33;10.13;;;6.60;86.20;;;6.47;73.85;98394.47;4956816;28;20658;-73
2023/04/08 09:27:54;;;;;;;11.90;10.63;;;6.50;86.90;;;6.04;75.30;98389.56;4978348;28;20931;-70
2023/04/08 09:30:24;;;;;;;12.50;11.10;;;6.20;88.00;;;6.04;76.27;98368.09;4976970;28;20465;-70
2023/04/08 09:32:54;;;;;;;12.53;11.23;;;6.10;90.90;;;5.74;76.78;98349.97;4976285;28;20481;-71
2023/04/08 09:35:22;;;;;;;12.87;11.67;;;6.00;91.00;;;6.12;77.99;98397.53;4980961;28;20476;-75
2023/04/08 09:37:50;;;;;;;13.67;12.23;;;6.00;92.70;;;6.06;77.57;98399.09;4976831;28;20474;-70
2023/04/08 09:40:18;;;;;;;14.60;13.10;;;6.00;92.10;;;6.15;77.85;98402.56;4957878;28;20822;-65
2023/04/08 09:42:49;;;;;;;14.10;12.60;;;6.00;92.20;;;6.36;76.50;98393.84;4982403;28;20459;-67
2023/04/08 09:45:18;;;;;;;15.00;13.50;;;6.10;92.00;;;6.44;76.67;98392.97;4979911;28;21930;-66
2023/04/08 09:48:05;;;;;;;13.67;12.23;;;6.20;91.80;;;6.61;75.87;98400.91;4977106;28;20444;-65
2023/04/08 09:50:38;;;;;;;13.30;12.00;;;6.40;90.70;;;6.64;74.45;98396.00;4984009;28;20479;-64
2023/04/08 09:53:15;;;;;;;13.33;11.93;;;6.50;90.00;;;6.65;75.19;98396.84;4982738;28;20485;-70
2023/04/08 09:55:47;;;;;;;12.70;11.40;;;6.50;90.00;;;6.68;75.49;98396.47;4973666;28;20482;-63
2023/04/08 09:58:19;;;;;;;12.40;11.20;;;6.50;90.60;;;6.99;74.15;98400.06;4980293;28;20526;-67
2023/04/08 10:00:50;;;;;;;13.33;12.00;;;6.60;90.20;;;6.98;73.72;98401.91;4980724;28;20535;-68
2023/04/08 10:03:27;;;;;;;11.93;10.77;;;6.70;89.40;;;6.98;74.28;98395.72;4979692;28;20460;-69
2023/04/08 10:05:56;;;;;;;13.23;11.73;;;6.70;89.10;;;6.89;74.48;98405.69;4962338;28;20544;-69
2023/04/08 10:08:24;;;;;;;11.43;10.23;;;6.70;89.00;;;7.02;73.89;98402.38;4979858;28;21019;-69
2023/04/08 10:10:52;;;;;;;13.03;11.17;;;6.70;88.60;;;7.29;73.71;98406.28;4976537;28;21054;-69
2023/04/08 10:13:21;;;;;;;13.40;11.90;;;6.80;89.70;;;7.39;72.87;98406.00;4964541;28;20604;-65
2023/04/08 10:15:48;;;;;;;14.30;12.80;;;7.10;88.00;;;7.46;72.13;98360.41;4984489;28;20451;-66
2023/04/08 10:18:35;;;;;;;12.60;11.10;;;7.40;87.00;;;7.85;70.31;98391.53;4967354;28;20448;-66
2023/04/08 10:21:02;;;;;;;10.43;9.43;;;7.50;85.10;;;7.85;69.92;98404.97;4966296;28;20978;-66
2023/04/08 10:23:58;;;;;;;11.73;10.53;;;7.60;84.00;;;7.46;70.76;98403.41;4978863;28;21503;-67
2023/04/08 10:26:42;;;;;;;12.33;11.10;;;7.30;83.90;;;7.58;71.27;98396.56;4982454;28;20482;-65